Time;durP1;ratioP1;P1;durP2;ratioP2;P2;SDS_P1;SDS_P2;PMS_P1;PMS_P2;Temp;Humidity;BMP_temperature;BMP_pressure;BME280_temperature;BME280_humidity;BME280_pressure;Samples;Min_cycle;Max_cycle;Signal;HPM_P1;HPM_P2
2023/04/28 04:09:52;;;;;;;8.82;5.93;;;;;;;6.76;64.71;101109.53;5605509;31;77648;-55
2023/04/28 04:12:55;;;;;;;9.55;6.15;;;;;;;6.76;64.71;101109.53;5583932;31;34043;-56
2023/04/28 04:15:57;;;;;;;10.93;6.25;;;;;;;6.35;65.55;101128.13;5592720;31;33597;-56
2023/04/28 04:19:00;;;;;;;10.00;6.22;;;;;;;6.32;67.15;101128.63;5601925;31;34419;-57
2023/04/28 04:22:03;;;;;;;13.75;6.68;;;;;;;6.62;74.13;101129.47;5602848;31;33480;-56
2023/04/28 04:25:06;;;;;;;9.63;5.97;;;;;;;6.62;67.82;101132.16;5599581;31;34239;-56
2023/04/28 04:28:08;;;;;;;8.95;6.22;;;;;;;6.50;67.75;101134.84;5583598;31;34439;-56
2023/04/28 04:31:11;;;;;;;8.85;6.53;;;;;;;6.66;73.55;101136.78;5583694;32;33722;-56
2023/04/28 04:34:13;;;;;;;11.77;6.45;;;;;;;6.90;64.47;101134.06;5583459;32;34156;-56
2023/04/28 04:37:16;;;;;;;12.45;6.90;;;;;;;7.22;64.08;101135.19;5600469;31;33536;-55
2023/04/28 04:40:19;;;;;;;9.85;6.72;;;;;;;7.34;62.48;101134.31;5600051;31;33206;-55
2023/04/28 04:43:23;;;;;;;10.65;5.95;;;;;;;7.38;71.21;101138.13;5595950;31;34409;-56
2023/04/28 04:46:25;;;;;;;10.07;6.22;;;;;;;7.48;62.18;101130.28;5599144;31;34593;-56
2023/04/28 04:49:28;;;;;;;13.48;6.78;;;;;;;7.64;61.36;101134.84;5596783;31;33568;-56
2023/04/28 04:52:30;;;;;;;12.90;6.47;;;;;;;7.62;64.75;101134.28;5595017;31;33300;-56
2023/04/28 04:55:32;;;;;;;10.65;6.53;;;;;;;7.48;64.47;101132.97;5591821;31;33612;-56
2023/04/28 04:58:35;;;;;;;12.02;6.75;;;;;;;7.80;62.78;101130.56;5597898;31;31694;-57
2023/04/28 05:01:38;;;;;;;11.80;7.00;;;;;;;7.97;69.59;101131.34;5601351;31;33029;-56
2023/04/28 05:04:40;;;;;;;19.05;7.50;;;;;;;7.97;72.26;101125.22;5588672;31;33330;-56
2023/04/28 05:07:43;;;;;;;13.93;7.40;;;;;;;8.21;70.09;101123.16;5583075;31;33815;-56
2023/04/28 05:10:45;;;;;;;12.20;7.43;;;;;;;8.37;64.24;101129.50;5583172;31;33336;-56
2023/04/28 05:13:48;;;;;;;12.15;7.60;;;;;;;8.56;65.36;101127.38;5582803;31;33304;-56
2023/04/28 05:16:50;;;;;;;10.13;7.35;;;;;;;8.70;62.36;101129.44;5582962;31;34662;-56
2023/04/28 05:19:54;;;;;;;15.30;7.97;;;;;;;8.97;62.76;101131.34;5575957;31;33324;-56
2023/04/28 05:22:57;;;;;;;16.58;8.38;;;;;;;9.17;62.77;101136.09;5587366;31;33369;-55
2023/04/28 05:26:01;;;;;;;12.15;7.30;;;;;;;9.51;56.71;101142.06;5589089;31;33164;-56
2023/04/28 05:29:04;;;;;;;12.35;8.55;;;;;;;9.61;58.88;101144.81;5589578;31;34023;-55
2023/04/28 05:32:06;;;;;;;13.82;8.50;;;;;;;9.81;56.27;101144.19;5588080;31;34344;-56
2023/04/28 05:35:09;;;;;;;11.65;8.00;;;;;;;9.95;59.15;101149.09;5589574;31;33639;-57
2023/04/28 05:38:11;;;;;;;15.93;8.32;;;;;;;10.07;68.38;101139.00;5589571;31;33589;-55
2023/04/28 05:41:13;;;;;;;12.70;8.60;;;;;;;10.47;68.86;101135.00;5587917;31;33393;-56
2023/04/28 05:44:16;;;;;;;16.17;9.00;;;;;;;10.62;60.72;101139.59;5586061;31;33659;-55
2023/04/28 05:47:19;;;;;;;12.82;8.50;;;;;;;10.59;53.19;101146.28;5581565;31;34286;-55
2023/04/28 05:50:22;;;;;;;19.25;9.30;;;;;;;10.81;53.04;101138.06;5585794;31;34374;-56
2023/04/28 05:53:24;;;;;;;13.13;8.77;;;;;;;10.93;55.80;101140.53;5582540;31;33390;-56
2023/04/28 05:56:27;;;;;;;14.13;9.20;;;;;;;11.05;60.13;101141.09;5575962;31;33714;-56
2023/04/28 05:59:30;;;;;;;15.00;9.27;;;;;;;10.98;54.55;101143.22;5586087;31;33322;-55
2023/04/28 06:02:33;;;;;;;13.68;9.30;;;;;;;10.86;55.44;101146.16;5585557;31;33342;-57
2023/04/28 06:05:37;;;;;;;12.90;9.20;;;;;;;10.82;53.55;101148.53;5574690;31;33288;-55
2023/04/28 06:08:40;;;;;;;15.05;9.77;;;;;;;11.10;55.60;101151.84;5586665;31;33401;-57
2023/04/28 06:11:43;;;;;;;14.52;9.90;;;;;;;11.07;54.87;101149.69;5587307;31;34251;-57
2023/04/28 06:14:45;;;;;;;16.75;9.68;;;;;;;11.07;52.35;101149.69;5587977;31;33553;-57
2023/04/28 06:17:47;;;;;;;15.38;9.60;;;;;;;11.20;53.64;101149.19;5583970;31;33667;-57
2023/04/28 06:20:50;;;;;;;20.02;9.45;;;;;;;11.28;58.20;101148.66;5584727;31;33227;-57
2023/04/28 06:23:54;;;;;;;12.88;9.27;;;;;;;11.34;51.30;101148.69;5588295;31;31845;-57
2023/04/28 06:26:56;;;;;;;14.93;9.38;;;;;;;11.39;51.64;101151.34;5588196;31;33461;-57
2023/04/28 06:29:59;;;;;;;13.30;9.20;;;;;;;11.54;52.82;101151.38;5585926;31;33914;-57
2023/04/28 06:33:02;;;;;;;26.77;10.07;;;;;;;11.70;62.80;101153.00;5587367;31;33322;-56
2023/04/28 06:36:05;;;;;;;16.33;10.18;;;;;;;11.37;49.75;101150.81;5587746;31;33931;-57
2023/04/28 06:39:07;;;;;;;18.12;11.15;;;;;;;11.45;51.96;101155.66;5587016;31;33904;-57
2023/04/28 06:42:10;;;;;;;15.27;10.20;;;;;;;11.61;50.17;101146.53;5587930;31;34935;-57
2023/04/28 06:45:13;;;;;;;16.70;10.70;;;;;;;11.85;72.10;101157.59;5588128;31;31758;-57
2023/04/28 06:48:16;;;;;;;14.00;9.85;;;;;;;12.01;51.91;101157.59;5585829;31;34359;-57
2023/04/28 06:51:18;;;;;;;15.13;10.80;;;;;;;12.12;57.94;101151.94;5587696;31;33625;-57
2023/04/28 06:54:21;;;;;;;19.60;10.05;;;;;;;12.20;48.90;101153.25;5586974;31;33878;-57
2023/04/28 06:57:23;;;;;;;15.68;10.40;;;;;;;12.29;53.66;101153.53;5587678;31;33650;-57
2023/04/28 07:00:26;;;;;;;17.92;10.90;;;;;;;12.47;51.79;101152.91;5580923;31;33581;-57
2023/04/28 07:03:29;;;;;;;16.23;10.52;;;;;;;12.38;50.70;101152.69;5580925;31;33607;-57
2023/04/28 07:06:31;;;;;;;21.40;10.75;;;;;;;12.59;49.91;101145.34;5588451;31;33628;-57
2023/04/28 07:09:34;;;;;;;16.35;10.23;;;;;;;12.75;52.54;101135.34;5587978;31;33707;-57
2023/04/28 07:12:37;;;;;;;14.70;10.65;;;;;;;12.56;47.83;101140.53;5587060;31;33207;-57
2023/04/28 07:15:39;;;;;;;20.23;11.90;;;;;;;12.85;57.55;101156.81;5587215;31;33561;-57
2023/04/28 07:18:41;;;;;;;12.45;9.15;;;;;;;12.82;47.33;101143.91;5588173;31;33687;-57
2023/04/28 07:21:44;;;;;;;13.62;10.48;;;;;;;12.97;62.08;101136.84;5588325;31;34283;-57
2023/04/28 07:24:47;;;;;;;12.65;9.15;;;;;;;13.00;46.79;101141.66;5572319;31;33908;-57
2023/04/28 07:27:49;;;;;;;14.77;10.32;;;;;;;13.02;53.18;101144.91;5568597;32;33195;-57
2023/04/28 07:30:52;;;;;;;17.83;10.68;;;;;;;13.02;51.00;101139.50;5568782;32;34115;-57
2023/04/28 07:33:54;;;;;;;17.42;9.43;;;;;;;13.08;46.86;101147.28;5578350;31;32929;-57
2023/04/28 07:36:57;;;;;;;17.52;10.35;;;;;;;13.33;49.68;101137.47;5587512;31;34333;-57
2023/04/28 07:39:59;;;;;;;15.73;9.20;;;;;;;13.08;44.40;101133.03;5587920;31;34270;-57
2023/04/28 07:43:02;;;;;;;18.42;9.35;;;;;;;13.02;46.24;101136.81;5584321;31;33732;-57
2023/04/28 07:46:07;;;;;;;17.02;9.30;;;;;;;13.18;52.02;101135.66;5575052;31;33694;-57
2023/04/28 07:49:09;;;;;;;13.75;9.98;;;;;;;13.36;49.27;101137.69;5586472;31;33748;-57
2023/04/28 07:52:11;;;;;;;17.77;11.82;;;;;;;13.33;44.83;101126.69;5588103;31;33576;-57
2023/04/28 07:55:14;;;;;;;12.75;8.05;;;;;;;13.46;45.08;101114.47;5569433;31;33602;-57
2023/04/28 07:58:17;;;;;;;14.23;8.68;;;;;;;13.46;47.61;101115.28;5568306;32;33709;-57
2023/04/28 08:01:19;;;;;;;16.58;8.05;;;;;;;13.48;44.87;101113.12;5567437;32;33591;-57
2023/04/28 08:04:22;;;;;;;17.77;7.82;;;;;;;13.78;48.77;101111.25;5580090;31;33598;-57
2023/04/28 08:07:25;;;;;;;12.63;8.10;;;;;;;13.92;47.37;101108.69;5587533;31;33643;-57
2023/04/28 08:10:27;;;;;;;17.90;8.63;;;;;;;14.20;56.68;101107.03;5587190;31;33566;-57
2023/04/28 08:13:30;;;;;;;14.85;8.75;;;;;;;14.33;46.05;101098.25;5580534;31;34342;-56
2023/04/28 08:16:35;;;;;;;16.52;9.10;;;;;;;14.18;44.34;101090.38;5586677;31;33229;-56
2023/04/28 08:19:37;;;;;;;13.95;8.15;;;;;;;14.20;42.64;101091.66;5581724;31;33612;-56
2023/04/28 08:22:40;;;;;;;10.40;8.02;;;;;;;14.10;56.13;101084.53;5584535;31;33587;-57
2023/04/28 08:25:43;;;;;;;14.77;7.97;;;;;;;14.30;54.29;101085.34;5576743;31;33694;-56
2023/04/28 08:28:45;;;;;;;18.08;7.97;;;;;;;14.54;49.57;101074.59;5572497;31;33070;-56
2023/04/28 08:31:47;;;;;;;11.35;6.80;;;;;;;14.46;43.29;101070.59;5572847;31;34243;-57
2023/04/28 08:34:50;;;;;;;10.40;6.35;;;;;;;14.85;56.36;101060.69;5568162;31;33523;-57
2023/04/28 08:37:52;;;;;;;9.68;6.80;;;;;;;14.94;50.58;101064.34;5571371;31;34236;-56
2023/04/28 08:40:55;;;;;;;10.48;6.15;;;;;;;15.04;45.13;101051.47;5582948;31;33668;-56
2023/04/28 08:43:57;;;;;;;10.38;6.55;;;;;;;15.16;48.01;101058.31;5585578;31;33656;-57
2023/04/28 08:47:02;;;;;;;13.62;5.50;;;;;;;15.06;40.25;101063.87;5586965;31;34276;-56
2023/04/28 08:50:06;;;;;;;11.55;5.28;;;;;;;15.04;40.28;101064.19;5582943;31;33574;-57
2023/04/28 08:53:11;;;;;;;9.13;5.80;;;;;;;15.13;43.84;101057.03;5586479;31;34380;-56
2023/04/28 08:56:15;;;;;;;10.57;5.37;;;;;;;15.32;48.97;101056.97;5585479;31;33511;-57
2023/04/28 08:59:18;;;;;;;11.23;5.15;;;;;;;15.38;45.84;101052.28;5581489;31;34237;-57
2023/04/28 09:02:21;;;;;;;10.80;5.60;;;;;;;15.16;42.67;101047.50;5588865;31;33731;-56
2023/04/28 09:05:24;;;;;;;11.38;5.68;;;;;;;15.39;47.98;101049.28;5587247;31;33720;-56
2023/04/28 09:08:27;;;;;;;10.07;5.50;;;;;;;15.39;39.94;101054.69;5580886;31;33797;-56
2023/04/28 09:11:30;;;;;;;12.77;5.60;;;;;;;15.21;40.01;101050.94;5583107;31;33667;-56
2023/04/28 09:14:34;;;;;;;16.85;6.37;;;;;;;15.11;40.46;101053.81;5589609;31;33749;-57
2023/04/28 09:17:49;;;;;;;12.37;5.85;;;;;;;15.11;41.40;101059.19;5588281;31;34735;-56
2023/04/28 09:21:01;;;;;;;11.23;6.40;;;;;;;15.04;40.30;101048.78;5589768;31;34024;-56
2023/04/28 09:24:04;;;;;;;18.17;5.68;;;;;;;15.02;44.64;101048.25;5587382;31;33707;-57
2023/04/28 09:27:10;;;;;;;10.70;6.03;;;;;;;15.16;41.34;101045.59;5587506;31;33726;-56
2023/04/28 09:30:13;;;;;;;11.98;4.90;;;;;;;15.18;40.37;101045.31;5583411;31;33721;-57
2023/04/28 09:33:15;;;;;;;28.75;5.80;;;;;;;15.35;40.21;101053.69;5582374;31;34367;-56
2023/04/28 09:36:31;;;;;;;14.25;5.15;;;;;;;15.52;39.41;101047.72;5587269;31;34571;-56
2023/04/28 09:39:33;;;;;;;9.93;4.45;;;;;;;15.43;37.99;101049.50;5586698;31;34288;-56
2023/04/28 09:42:40;;;;;;;10.48;3.87;;;;;;;15.65;46.54;101035.34;5585279;31;33957;-56
2023/04/28 09:45:44;;;;;;;6.95;3.80;;;;;;;15.93;40.94;101038.91;5568829;32;33886;-56
2023/04/28 09:48:47;;;;;;;8.73;4.35;;;;;;;15.90;42.05;101032.19;5573664;31;33734;-56
2023/04/28 09:51:49;;;;;;;8.10;4.97;;;;;;;16.06;39.98;101026.47;5588978;31;33692;-56
2023/04/28 09:54:56;;;;;;;11.30;4.62;;;;;;;15.94;39.12;101016.97;5580646;31;33718;-58
2023/04/28 09:58:04;;;;;;;9.32;4.45;;;;;;;16.04;45.49;101005.16;5570331;31;34390;-57
2023/04/28 10:01:10;;;;;;;10.85;4.80;;;;;;;15.96;40.52;101011.28;5576706;31;34266;-57
2023/04/28 10:04:13;;;;;;;8.55;4.62;;;;;;;16.13;44.37;101011.47;5586763;31;33535;-57
2023/04/28 10:07:19;;;;;;;11.70;4.60;;;;;;;16.30;42.01;101010.84;5588716;31;33626;-57
2023/04/28 10:10:24;;;;;;;8.68;4.78;;;;;;;16.14;38.83;101007.66;5588176;31;33679;-55
2023/04/28 10:13:26;;;;;;;12.27;5.12;;;;;;;15.93;42.29;101003.75;5587594;31;32353;-55
2023/04/28 10:16:30;;;;;;;10.75;5.25;;;;;;;15.95;36.34;100993.44;5588358;31;33738;-59
2023/04/28 10:19:34;;;;;;;6.47;4.07;;;;;;;16.07;40.39;100988.31;5569319;32;33625;-59
2023/04/28 10:23:05;;;;;;;8.02;4.68;;;;;;;16.28;43.75;100990.59;5581825;31;33636;-59
2023/04/28 10:26:13;;;;;;;7.47;4.07;;;;;;;16.21;35.44;100989.09;5588461;31;33671;-59
2023/04/28 10:29:16;;;;;;;9.38;4.80;;;;;;;16.12;36.97;100976.59;5577924;31;34206;-58
2023/04/28 10:32:25;;;;;;;12.13;4.20;;;;;;;16.32;42.56;100964.53;5577668;31;34355;-59
2023/04/28 10:35:28;;;;;;;7.53;4.30;;;;;;;16.20;35.64;100957.75;5568671;32;33758;-59
2023/04/28 10:38:31;;;;;;;7.22;3.80;;;;;;;16.26;42.41;100958.44;5568170;32;33778;-59
2023/04/28 10:41:33;;;;;;;6.90;3.70;;;;;;;16.33;39.45;100953.41;5568102;31;34286;-59
2023/04/28 10:44:35;;;;;;;10.98;3.92;;;;;;;16.27;36.94;100948.44;5571114;31;33625;-59
2023/04/28 10:48:03;;;;;;;8.02;3.70;;;;;;;16.20;38.34;100944.22;5569022;32;33788;-59
2023/04/28 10:51:06;;;;;;;11.30;4.15;;;;;;;16.49;38.80;100945.75;5581330;31;33690;-59
2023/04/28 10:54:09;;;;;;;7.68;3.33;;;;;;;16.42;36.76;100939.94;5587263;31;33746;-59
2023/04/28 10:57:18;;;;;;;7.20;3.62;;;;;;;16.61;38.87;100937.88;5586848;31;34329;-59
2023/04/28 11:00:29;;;;;;;9.90;3.92;;;;;;;16.66;36.95;100926.16;5577022;31;34335;-59
2023/04/28 11:03:46;;;;;;;5.53;3.83;;;;;;;16.77;39.29;100932.94;5568813;31;33688;-59
2023/04/28 11:07:10;;;;;;;7.93;3.97;;;;;;;16.59;34.42;100917.66;5569158;32;33761;-59
2023/04/28 11:10:12;;;;;;;5.72;3.50;;;;;;;16.56;44.46;100921.78;5567686;32;33689;-59
2023/04/28 11:13:25;;;;;;;7.45;3.80;;;;;;;16.73;43.02;100925.72;5584739;31;34330;-59
2023/04/28 11:16:27;;;;;;;8.63;3.83;;;;;;;16.76;37.79;100912.41;5586994;31;34310;-59
2023/04/28 11:19:36;;;;;;;10.48;4.68;;;;;;;16.60;36.52;100908.44;5587722;31;34001;-59
2023/04/28 11:22:39;;;;;;;7.85;3.80;;;;;;;16.69;41.36;100917.41;5583951;31;33696;-59
2023/04/28 11:25:55;;;;;;;11.05;3.78;;;;;;;16.80;43.21;100916.06;5587398;31;33738;-59
2023/04/28 11:28:57;;;;;;;8.77;3.60;;;;;;;16.79;37.99;100916.41;5586650;31;34337;-59
2023/04/28 11:32:04;;;;;;;7.80;3.78;;;;;;;16.52;37.04;100901.81;5586668;31;33906;-59
2023/04/28 11:35:08;;;;;;;9.13;3.92;;;;;;;16.52;37.32;100909.16;5568960;32;34352;-59
2023/04/28 11:38:11;;;;;;;10.88;3.80;;;;;;;16.47;40.98;100906.56;5580003;31;33687;-59
2023/04/28 11:41:13;;;;;;;11.00;3.80;;;;;;;16.61;43.60;100912.72;5581537;31;33604;-59
2023/04/28 11:44:19;;;;;;;6.82;3.67;;;;;;;16.77;42.82;100905.88;5580754;31;33166;-59
2023/04/28 11:47:29;;;;;;;11.75;3.70;;;;;;;16.62;42.81;100912.44;5583898;31;33470;-58
2023/04/28 11:50:35;;;;;;;8.13;3.60;;;;;;;16.59;39.14;100907.63;5579040;31;33680;-59
2023/04/28 11:53:44;;;;;;;6.72;3.55;;;;;;;16.68;38.79;100894.13;5582787;31;33185;-59
2023/04/28 11:56:47;;;;;;;11.55;5.12;;;;;;;16.75;49.24;100899.16;5585029;31;33408;-59
2023/04/28 11:59:49;;;;;;;10.13;3.80;;;;;;;16.80;39.51;100899.84;5586056;31;33707;-59
2023/04/28 12:02:52;;;;;;;9.10;3.75;;;;;;;16.66;36.87;100888.25;5579207;31;33655;-59
2023/04/28 12:05:55;;;;;;;8.10;3.58;;;;;;;16.61;40.06;100889.16;5587293;31;34368;-59
2023/04/28 12:09:03;;;;;;;5.95;3.72;;;;;;;16.64;51.95;100877.72;5584369;31;33654;-59
2023/04/28 12:12:10;;;;;;;10.93;4.55;;;;;;;16.75;45.15;100888.31;5587152;31;34278;-59
2023/04/28 12:15:13;;;;;;;10.52;4.65;;;;;;;16.78;38.08;100876.88;5585568;31;33700;-59
2023/04/28 12:18:18;;;;;;;7.80;3.65;;;;;;;16.61;37.11;100880.25;5580986;31;34526;-56
2023/04/28 12:21:20;;;;;;;10.65;4.45;;;;;;;16.73;48.87;100868.88;5582684;31;33659;-57
2023/04/28 12:24:24;;;;;;;6.60;3.30;;;;;;;16.80;38.54;100870.03;5586962;31;34308;-56
2023/04/28 12:27:28;;;;;;;5.78;3.78;;;;;;;16.67;38.98;100870.87;5587233;31;33999;-56
2023/04/28 12:30:33;;;;;;;5.00;3.83;;;;;;;16.51;38.02;100858.84;5588732;31;33616;-57
2023/04/28 12:33:38;;;;;;;10.82;4.10;;;;;;;16.59;41.00;100858.13;5586138;31;34271;-56
2023/04/28 12:36:40;;;;;;;5.30;3.67;;;;;;;16.81;47.32;100854.59;5578514;31;33656;-56
2023/04/28 12:39:42;;;;;;;9.82;3.42;;;;;;;16.88;46.08;100850.31;5569676;32;33991;-56
2023/04/28 12:42:45;;;;;;;10.30;3.72;;;;;;;16.93;46.81;100840.50;5576540;31;33224;-57
2023/04/28 12:45:52;;;;;;;6.20;3.50;;;;;;;17.03;43.97;100840.22;5583183;31;34304;-57
2023/04/28 12:48:55;;;;;;;6.87;3.67;;;;;;;17.00;42.58;100830.81;5582477;31;33766;-56
2023/04/28 12:51:58;;;;;;;6.12;3.42;;;;;;;17.03;39.78;100818.56;5589789;31;33734;-56
2023/04/28 12:55:01;;;;;;;7.03;3.25;;;;;;;17.01;45.29;100809.94;5589828;31;33649;-57
2023/04/28 12:58:04;;;;;;;11.05;3.65;;;;;;;17.18;44.46;100795.66;5589251;31;33690;-56
2023/04/28 13:01:07;;;;;;;8.18;3.50;;;;;;;17.20;38.92;100790.72;5589684;31;34276;-56
2023/04/28 13:04:09;;;;;;;6.57;3.40;;;;;;;17.16;40.00;100782.44;5589706;31;34345;-56
2023/04/28 13:07:13;;;;;;;9.82;3.58;;;;;;;17.36;44.79;100767.50;5588648;31;33636;-58
2023/04/28 13:10:17;;;;;;;8.20;3.33;;;;;;;17.47;47.90;100765.28;5589722;31;33136;-57
2023/04/28 13:13:19;;;;;;;14.90;3.72;;;;;;;17.48;42.75;100758.72;5589719;31;33552;-56
2023/04/28 13:16:24;;;;;;;7.12;3.40;;;;;;;17.43;38.88;100764.31;5587868;31;33578;-56
2023/04/28 13:19:27;;;;;;;5.53;3.33;;;;;;;17.30;38.47;100764.12;5589347;31;33755;-56
2023/04/28 13:22:29;;;;;;;10.40;3.40;;;;;;;17.50;48.79;100751.87;5589134;31;33588;-56
2023/04/28 13:25:32;;;;;;;9.05;3.22;;;;;;;17.61;48.12;100757.78;5589509;31;33666;-57
2023/04/28 13:28:35;;;;;;;5.62;3.22;;;;;;;17.74;43.85;100754.12;5577450;31;33612;-56
2023/04/28 13:31:37;;;;;;;8.38;3.50;;;;;;;17.67;38.71;100745.66;5570027;32;33686;-56
2023/04/28 13:34:39;;;;;;;14.02;3.20;;;;;;;17.65;36.26;100744.38;5569779;32;34487;-57
2023/04/28 13:37:44;;;;;;;8.60;3.83;;;;;;;17.66;39.74;100760.34;5569567;32;34304;-57
2023/04/28 13:40:47;;;;;;;6.70;3.47;;;;;;;17.64;38.78;100754.44;5569116;32;33784;-56
2023/04/28 13:43:49;;;;;;;12.70;3.30;;;;;;;17.58;47.61;100751.09;5569345;32;33707;-56
2023/04/28 13:46:51;;;;;;;6.62;3.05;;;;;;;17.41;36.87;100761.91;5569806;32;33685;-56
2023/04/28 13:49:54;;;;;;;10.43;3.33;;;;;;;17.42;43.11;100752.69;5570129;32;33631;-56
2023/04/28 13:52:57;;;;;;;7.97;3.28;;;;;;;17.35;37.41;100750.44;5569863;32;33621;-56
2023/04/28 13:56:00;;;;;;;9.30;3.28;;;;;;;17.24;42.79;100746.41;5569428;32;33406;-57
2023/04/28 13:59:03;;;;;;;6.35;2.97;;;;;;;17.16;42.49;100733.66;5569519;32;33767;-56
2023/04/28 14:02:08;;;;;;;9.23;3.87;;;;;;;17.46;43.08;100720.31;5571769;31;33570;-57
2023/04/28 14:05:11;;;;;;;9.17;3.47;;;;;;;17.44;47.28;100711.69;5586078;31;33290;-57
2023/04/28 14:08:13;;;;;;;11.63;3.50;;;;;;;17.58;44.39;100699.59;5589158;31;34372;-56
2023/04/28 14:11:15;;;;;;;10.32;3.65;;;;;;;17.64;43.40;100702.13;5588249;31;33999;-56
2023/04/28 14:14:18;;;;;;;8.55;3.87;;;;;;;17.60;39.33;100694.63;5588791;31;33751;-57
2023/04/28 14:17:20;;;;;;;10.25;3.30;;;;;;;17.60;38.96;100696.56;5589273;31;33681;-56
2023/04/28 14:20:22;;;;;;;6.20;3.40;;;;;;;17.58;40.33;100701.50;5589223;31;34260;-56
2023/04/28 14:23:25;;;;;;;6.05;3.15;;;;;;;17.68;48.25;100698.47;5589275;31;33771;-57
2023/04/28 14:26:27;;;;;;;5.35;3.47;;;;;;;17.72;46.04;100695.94;5589334;31;33796;-57
2023/04/28 14:29:30;;;;;;;7.95;3.35;;;;;;;17.51;39.83;100690.34;5589388;31;33615;-56
2023/04/28 14:32:32;;;;;;;10.43;3.67;;;;;;;17.57;40.63;100702.63;5589258;31;34267;-57
2023/04/28 14:35:34;;;;;;;8.50;3.70;;;;;;;17.49;41.18;100689.88;5589140;31;34449;-56
2023/04/28 14:38:37;;;;;;;7.75;3.42;;;;;;;17.52;42.92;100683.81;5589296;31;33858;-56
2023/04/28 14:41:41;;;;;;;8.50;3.28;;;;;;;17.54;44.03;100682.34;5580887;31;33785;-57
2023/04/28 14:44:43;;;;;;;6.78;3.90;;;;;;;17.61;39.88;100681.88;5569620;32;34416;-56
2023/04/28 14:47:46;;;;;;;8.63;3.58;;;;;;;17.62;48.99;100680.78;5569458;32;34363;-56
2023/04/28 14:50:50;;;;;;;6.00;3.22;;;;;;;17.67;43.07;100677.87;5569535;32;34436;-57
2023/04/28 14:53:54;;;;;;;;;;;;;;;17.69;42.38;100672.94;5567916;32;33762;-56
2023/04/28 14:56:57;;;;;;;12.98;3.30;;;;;;;17.62;44.07;100676.16;5568819;32;34644;-56
2023/04/28 15:00:00;;;;;;;10.07;3.70;;;;;;;17.60;40.75;100672.94;5569603;32;34381;-57
2023/04/28 15:03:03;;;;;;;7.32;3.65;;;;;;;17.66;42.83;100662.75;5569381;32;34260;-56
2023/04/28 15:06:05;;;;;;;11.63;3.83;;;;;;;17.67;44.01;100661.63;5569521;32;33645;-56
2023/04/28 15:09:07;;;;;;;6.87;3.30;;;;;;;17.50;39.31;100654.31;5569112;32;33665;-57
2023/04/28 15:12:10;;;;;;;7.80;3.53;;;;;;;17.37;39.72;100661.47;5568277;32;33732;-57
2023/04/28 15:15:12;;;;;;;7.65;3.72;;;;;;;17.34;43.83;100653.97;5569321;32;34237;-56
2023/04/28 15:18:14;;;;;;;8.93;3.37;;;;;;;17.43;46.84;100656.69;5569424;32;33645;-56
2023/04/28 15:21:16;;;;;;;7.35;4.32;;;;;;;17.48;40.95;100651.13;5569249;32;33765;-57
2023/04/28 15:24:20;;;;;;;6.80;3.20;;;;;;;17.52;42.99;100643.16;5568733;32;34339;-57
2023/04/28 15:27:22;;;;;;;10.30;4.03;;;;;;;17.45;49.94;100635.50;5568588;32;33649;-57
2023/04/28 15:30:25;;;;;;;5.78;3.50;;;;;;;17.32;40.83;100639.97;5568609;32;33813;-56
